Wetterdaten: Woche 18.12.17 - 24.12.17 (KW51)
Datum Zeit Temp. Aussen Temp. o. S. +5cm Feuchte Auss BlattFeu 1 Luftdruck Regen Sonnenschein Regendauer Solar Windben Empfang
18.12.2017 00:00 1,2 C 0,4 C -0,6 C 94 % 15 lf 1018,3 hPa 0,4 l/m 0,00 h 1,00 h 0 W/m 21,8 km/h (4 Bft) 93,00 %
18.12.2017 01:00 0,3 C 0,0 C -1,1 C 95 % 15 lf 1017,0 hPa 0,2 l/m 0,00 h 0,37 h 0 W/m 18,7 km/h (3 Bft) 95,52 %
18.12.2017 02:00 0,3 C 0,0 C -1,1 C 96 % 15 lf 1016,5 hPa 0,2 l/m 0,00 h 0,43 h 0 W/m 19,4 km/h (3 Bft) 98,72 %
18.12.2017 03:00 0,5 C 0,1 C -1,1 C 97 % 15 lf 1016,0 hPa 1,0 l/m 0,00 h 0,83 h 0 W/m 14,7 km/h (3 Bft) 95,52 %
18.12.2017 04:00 0,6 C 0,6 C -0,8 C 97 % 15 lf 1015,3 hPa 0,8 l/m 0,00 h 0,30 h 0 W/m 11,3 km/h (2 Bft) 94,68 %
18.12.2017 05:00 0,9 C 1,0 C -0,6 C 98 % 15 lf 1015,2 hPa 0,6 l/m 0,00 h 0,45 h 0 W/m 10,0 km/h (2 Bft) 96,89 %
18.12.2017 06:00 0,9 C 1,0 C -0,4 C 98 % 15 lf 1015,8 hPa 0,6 l/m 0,00 h 0,17 h 0 W/m 9,0 km/h (2 Bft) 95,89 %
18.12.2017 07:00 0,9 C 1,0 C -0,1 C 98 % 15 lf 1016,6 hPa 0,4 l/m 0,00 h 0,27 h 0 W/m 6,3 km/h (2 Bft) 96,09 %
18.12.2017 08:00 1,1 C 1,1 C 0,0 C 98 % 15 lf 1017,7 hPa 0,4 l/m 0,00 h 0,37 h 5 W/m 3,0 km/h (1 Bft) 96,29 %
18.12.2017 09:00 1,3 C 1,3 C 0,4 C 98 % 15 lf 1018,9 hPa 0,6 l/m 0,00 h 0,03 h 15 W/m 5,5 km/h (1 Bft) 94,86 %
18.12.2017 10:00 1,4 C 1,3 C 0,6 C 98 % 15 lf 1020,1 hPa 0,6 l/m 0,00 h 0,37 h 22 W/m 6,4 km/h (2 Bft) 97,07 %
18.12.2017 11:00 1,6 C 2,0 C 1,3 C 98 % 15 lf 1021,1 hPa 0,8 l/m 0,00 h 0,40 h 46 W/m 4,9 km/h (1 Bft) 97,66 %
18.12.2017 12:00 2,1 C 2,4 C 1,9 C 99 % 15 lf 1021,5 hPa 0,6 l/m 0,00 h 0,27 h 72 W/m 6,3 km/h (2 Bft) 92,57 %
18.12.2017 13:00 2,6 C 3,0 C 2,4 C 99 % 15 lf 1022,2 hPa 0,6 l/m 0,00 h 0,10 h 55 W/m 4,6 km/h (1 Bft) 98,79 %
18.12.2017 14:00 3,0 C 3,2 C 2,4 C 99 % 15 lf 1022,9 hPa 0,0 l/m 0,00 h 0,00 h 35 W/m 3,8 km/h (1 Bft) 97,94 %
18.12.2017 15:00 3,2 C 3,1 C 2,2 C 99 % 15 lf 1023,7 hPa 0,2 l/m 0,00 h 0,00 h 11 W/m 5,6 km/h (1 Bft) 94,97 %
18.12.2017 16:00 2,9 C 2,8 C 1,9 C 99 % 15 lf 1024,6 hPa 0,0 l/m 0,00 h 0,00 h 5 W/m 3,8 km/h (1 Bft) 96,44 %
18.12.2017 17:00 2,8 C 2,8 C 1,7 C 99 % 15 lf 1025,6 hPa 0,0 l/m 0,00 h 0,00 h 0 W/m 2,5 km/h (1 Bft) 97,43 %
18.12.2017 18:00 2,8 C 2,8 C 1,9 C 99 % 15 lf 1026,3 hPa 0,0 l/m 0,00 h 0,00 h 0 W/m 4,3 km/h (1 Bft) 95,22 %
18.12.2017 19:00 3,0 C 2,8 C 2,2 C 99 % 15 lf 1027,0 hPa 0,0 l/m 0,00 h 0,00 h 0 W/m 6,1 km/h (2 Bft) 97,57 %
18.12.2017 20:00 3,1 C 2,8 C 2,2 C 99 % 15 lf 1027,7 hPa 0,0 l/m 0,00 h 0,00 h 0 W/m 9,2 km/h (2 Bft) 93,92 %
18.12.2017 21:00 3,0 C 2,8 C 1,8 C 99 % 15 lf 1028,4 hPa 0,0 l/m 0,00 h 0,00 h 0 W/m 12,4 km/h (3 Bft) 97,15 %
18.12.2017 22:00 2,8 C 2,8 C 1,7 C 99 % 14 lf 1028,8 hPa 0,0 l/m 0,00 h 0,00 h 0 W/m 7,8 km/h (2 Bft) 97,72 %
18.12.2017 23:00 2,7 C 2,8 C 1,7 C 99 % 13 lf 1029,4 hPa 0,0 l/m 0,00 h 0,00 h 0 W/m 6,1 km/h (2 Bft) 94,10 %
19.12.2017 00:00 2,6 C 2,5 C 1,7 C 99 % 13 lf 1029,5 hPa 0,0 l/m 0,00 h 0,00 h 0 W/m 4,6 km/h (1 Bft) 96,67 %
19.12.2017 01:00 2,6 C 2,2 C 1,7 C 99 % 13 lf 1030,1 hPa 0,0 l/m 0,00 h 0,00 h 0 W/m 6,7 km/h (2 Bft) 97,72 %
19.12.2017 02:00 2,5 C 2,3 C 1,7 C 99 % 12 lf 1030,7 hPa 0,0 l/m 0,00 h 0,00 h 0 W/m 5,5 km/h (1 Bft) 96,44 %
19.12.2017 03:00 2,6 C 2,8 C 1,7 C 99 % 11 lf 1031,2 hPa 0,0 l/m 0,00 h 0,00 h 0 W/m 1,4 km/h (1 Bft) 96,30 %
19.12.2017 04:00 2,7 C 2,8 C 2,0 C 99 % 10 lf 1031,3 hPa 0,0 l/m 0,00 h 0,00 h 0 W/m 3,4 km/h (1 Bft) 97,47 %
19.12.2017 05:00 2,9 C 3,1 C 2,2 C 99 % 7 lf 1031,4 hPa 0,0 l/m 0,00 h 0,00 h 0 W/m 5,1 km/h (1 Bft) 95,54 %
19.12.2017 06:00 3,3 C 3,3 C 2,4 C 99 % 3 lf 1031,4 hPa 0,0 l/m 0,00 h 0,00 h 0 W/m 8,3 km/h (2 Bft) 99,24 %
19.12.2017 07:00 3,8 C 3,9 C 2,8 C 99 % 3 lf 1031,9 hPa 0,0 l/m 0,00 h 0,00 h 0 W/m 8,7 km/h (2 Bft) 94,42 %
19.12.2017 08:00 4,1 C 4,1 C 3,0 C 99 % 2 lf 1032,5 hPa 0,0 l/m 0,00 h 0,00 h 7 W/m 4,9 km/h (1 Bft) 95,68 %
19.12.2017 09:00 4,4 C 4,5 C 3,6 C 99 % 2 lf 1032,9 hPa 0,0 l/m 0,00 h 0,07 h 22 W/m 8,2 km/h (2 Bft) 96,99 %
19.12.2017 10:00 4,8 C 5,0 C 4,1 C 99 % 9 lf 1033,2 hPa 0,0 l/m 0,00 h 0,17 h 35 W/m 8,4 km/h (2 Bft) 96,07 %
19.12.2017 11:00 5,2 C 5,6 C 4,5 C 99 % 14 lf 1033,4 hPa 0,0 l/m 0,00 h 0,23 h 52 W/m 8,9 km/h (2 Bft) 94,19 %
19.12.2017 12:00 5,6 C 6,1 C 5,1 C 100 % 11 lf 1033,4 hPa 0,0 l/m 0,00 h 0,03 h 67 W/m 11,0 km/h (2 Bft) 98,72 %
19.12.2017 13:00 5,9 C 6,7 C 5,6 C 100 % 2 lf 1033,0 hPa 0,0 l/m 0,00 h 0,17 h 68 W/m 11,7 km/h (2 Bft) 95,95 %
19.12.2017 14:00 6,1 C 6,7 C 5,5 C 100 % 3 lf 1032,5 hPa 0,0 l/m 0,00 h 0,07 h 51 W/m 13,1 km/h (3 Bft) 95,76 %
19.12.2017 15:00 6,0 C 6,3 C 4,9 C 100 % 0 lf 1032,4 hPa 0,2 l/m 0,00 h 0,00 h 24 W/m 13,8 km/h (3 Bft) 95,02 %
19.12.2017 16:00 5,7 C 5,8 C 4,4 C 99 % 0 lf 1032,1 hPa 0,0 l/m 0,00 h 0,00 h 8 W/m 15,3 km/h (3 Bft) 96,65 %
19.12.2017 17:00 5,7 C 5,6 C 4,4 C 99 % 0 lf 1032,1 hPa 0,0 l/m 0,00 h 0,00 h 0 W/m 14,6 km/h (3 Bft) 96,73 %
19.12.2017 18:00 5,7 C 5,4 C 4,2 C 99 % 13 lf 1032,4 hPa 0,0 l/m 0,00 h 0,23 h 0 W/m 13,5 km/h (3 Bft) 94,37 %
19.12.2017 19:00 5,3 C 4,7 C 3,9 C 98 % 15 lf 1032,7 hPa 1,0 l/m 0,00 h 0,70 h 0 W/m 12,5 km/h (3 Bft) 94,45 %
19.12.2017 20:00 5,0 C 4,5 C 3,9 C 98 % 15 lf 1032,5 hPa 0,6 l/m 0,00 h 0,87 h 0 W/m 10,4 km/h (2 Bft) 96,44 %
19.12.2017 21:00 4,9 C 4,4 C 3,7 C 98 % 15 lf 1032,4 hPa 0,4 l/m 0,00 h 0,53 h 0 W/m 15,3 km/h (3 Bft) 95,95 %
19.12.2017 22:00 4,8 C 4,4 C 3,7 C 98 % 15 lf 1032,2 hPa 0,2 l/m 0,00 h 0,43 h 0 W/m 15,6 km/h (3 Bft) 94,44 %
19.12.2017 23:00 4,9 C 4,4 C 3,9 C 98 % 15 lf 1032,3 hPa 0,8 l/m 0,00 h 0,87 h 0 W/m 12,1 km/h (2 Bft) 97,34 %
20.12.2017 00:00 4,9 C 4,9 C 3,9 C 99 % 15 lf 1031,8 hPa 0,0 l/m 0,00 h 0,03 h 0 W/m 13,3 km/h (3 Bft) 96,85 %
20.12.2017 01:00 5,1 C 5,0 C 3,9 C 99 % 15 lf 1031,7 hPa 0,0 l/m 0,00 h 0,07 h 0 W/m 7,2 km/h (2 Bft) 96,94 %
20.12.2017 02:00 5,1 C 5,0 C 3,9 C 99 % 15 lf 1031,8 hPa 0,0 l/m 0,00 h 0,00 h 0 W/m 7,3 km/h (2 Bft) 94,09 %
20.12.2017 03:00 5,2 C 5,0 C 3,9 C 99 % 15 lf 1031,5 hPa 0,0 l/m 0,00 h 0,07 h 0 W/m 9,3 km/h (2 Bft) 97,80 %
20.12.2017 04:00 5,3 C 5,0 C 4,3 C 99 % 15 lf 1031,3 hPa 0,0 l/m 0,00 h 0,00 h 0 W/m 8,8 km/h (2 Bft) 93,22 %
20.12.2017 05:00 5,4 C 5,3 C 4,4 C 99 % 15 lf 1031,2 hPa 0,0 l/m 0,00 h 0,00 h 0 W/m 9,2 km/h (2 Bft) 96,44 %
20.12.2017 06:00 5,5 C 5,6 C 4,4 C 99 % 15 lf 1031,2 hPa 0,0 l/m 0,00 h 0,00 h 0 W/m 8,2 km/h (2 Bft) 95,29 %
20.12.2017 07:00 5,6 C 5,6 C 4,4 C 99 % 15 lf 1031,6 hPa 0,0 l/m 0,00 h 0,00 h 0 W/m 5,2 km/h (1 Bft) 97,30 %
20.12.2017 08:00 5,6 C 5,6 C 4,4 C 99 % 15 lf 1031,7 hPa 0,0 l/m 0,00 h 0,00 h 5 W/m 7,2 km/h (2 Bft) 96,16 %
20.12.2017 09:00 5,8 C 5,8 C 4,7 C 99 % 15 lf 1031,9 hPa 0,0 l/m 0,00 h 0,00 h 10 W/m 5,8 km/h (2 Bft) 96,51 %
20.12.2017 10:00 6,1 C 6,2 C 5,2 C 99 % 15 lf 1032,6 hPa 0,0 l/m 0,00 h 0,00 h 31 W/m 7,2 km/h (2 Bft) 93,59 %
20.12.2017 11:00 6,5 C 6,8 C 5,8 C 99 % 15 lf 1032,7 hPa 0,2 l/m 0,00 h 0,00 h 52 W/m 8,8 km/h (2 Bft) 98,29 %
20.12.2017 12:00 6,8 C 6,9 C 6,1 C 99 % 15 lf 1032,5 hPa 0,0 l/m 0,00 h 0,00 h 44 W/m 8,1 km/h (2 Bft) 96,12 %
20.12.2017 13:00 6,9 C 7,0 C 6,1 C 99 % 15 lf 1032,4 hPa 0,0 l/m 0,00 h 0,00 h 37 W/m 8,1 km/h (2 Bft) 94,90 %
20.12.2017 14:00 7,2 C 7,2 C 6,5 C 100 % 15 lf 1032,2 hPa 0,0 l/m 0,00 h 0,00 h 43 W/m 8,2 km/h (2 Bft) 96,41 %
20.12.2017 15:00 7,3 C 7,2 C 6,3 C 99 % 15 lf 1032,2 hPa 0,0 l/m 0,00 h 0,00 h 20 W/m 8,2 km/h (2 Bft) 96,41 %
20.12.2017 16:00 7,2 C 7,2 C 6,1 C 100 % 15 lf 1032,4 hPa 0,0 l/m 0,00 h 0,00 h 6 W/m 5,9 km/h (2 Bft) 95,46 %
20.12.2017 17:00 7,2 C 7,2 C 6,0 C 100 % 15 lf 1032,8 hPa 0,0 l/m 0,00 h 0,00 h 0 W/m 4,8 km/h (1 Bft) 95,45 %
20.12.2017 18:00 7,2 C 7,2 C 6,0 C 100 % 15 lf 1032,9 hPa 0,0 l/m 0,00 h 0,00 h 0 W/m 6,2 km/h (2 Bft) 95,15 %
20.12.2017 19:00 7,2 C 7,2 C 6,1 C 100 % 15 lf 1033,3 hPa 0,0 l/m 0,00 h 0,00 h 0 W/m 4,9 km/h (1 Bft) 97,09 %
20.12.2017 20:00 7,3 C 7,2 C 6,1 C 100 % 15 lf 1033,4 hPa 0,2 l/m 0,00 h 0,20 h 0 W/m 7,7 km/h (2 Bft) 95,51 %
20.12.2017 21:00 7,3 C 7,2 C 6,1 C 100 % 15 lf 1033,5 hPa 0,0 l/m 0,00 h 0,00 h 0 W/m 8,0 km/h (2 Bft) 94,85 %
20.12.2017 22:00 7,4 C 7,2 C 6,1 C 100 % 15 lf 1033,0 hPa 0,2 l/m 0,00 h 0,13 h 0 W/m 10,2 km/h (2 Bft) 97,58 %
20.12.2017 23:00 7,4 C 7,2 C 6,1 C 100 % 15 lf 1033,3 hPa 0,0 l/m 0,00 h 0,03 h 0 W/m 9,7 km/h (2 Bft) 96,61 %
21.12.2017 00:00 7,4 C 7,2 C 6,1 C 100 % 15 lf 1033,1 hPa 0,0 l/m 0,00 h 0,13 h 0 W/m 11,7 km/h (2 Bft) 94,00 %
21.12.2017 01:00 7,4 C 7,2 C 6,1 C 100 % 15 lf 1033,2 hPa 0,0 l/m 0,00 h 0,00 h 0 W/m 8,3 km/h (2 Bft) 97,22 %
21.12.2017 02:00 7,4 C 7,2 C 6,1 C 100 % 15 lf 1033,3 hPa 0,0 l/m 0,00 h 0,00 h 0 W/m 7,4 km/h (2 Bft) 96,29 %
21.12.2017 03:00 7,4 C 7,2 C 6,1 C 100 % 15 lf 1033,3 hPa 0,0 l/m 0,00 h 0,10 h 0 W/m 9,4 km/h (2 Bft) 95,45 %
21.12.2017 04:00 7,4 C 7,2 C 6,1 C 100 % 15 lf 1032,9 hPa 0,2 l/m 0,00 h 0,00 h 0 W/m 7,1 km/h (2 Bft) 96,46 %
21.12.2017 05:00 7,3 C 7,2 C 6,1 C 100 % 15 lf 1032,6 hPa 0,0 l/m 0,00 h 0,00 h 0 W/m 11,3 km/h (2 Bft) 95,12 %
21.12.2017 06:00 7,3 C 7,2 C 6,1 C 100 % 15 lf 1032,6 hPa 0,0 l/m 0,00 h 0,00 h 0 W/m 11,5 km/h (2 Bft) 98,27 %
21.12.2017 07:00 7,3 C 7,2 C 6,1 C 100 % 15 lf 1032,7 hPa 0,0 l/m 0,00 h 0,20 h 0 W/m 10,6 km/h (2 Bft) 95,80 %
21.12.2017 08:00 7,4 C 7,2 C 6,1 C 100 % 15 lf 1032,8 hPa 0,2 l/m 0,00 h 0,07 h 3 W/m 10,9 km/h (2 Bft) 93,88 %
21.12.2017 09:00 7,5 C 7,2 C 6,5 C 100 % 15 lf 1032,9 hPa 0,0 l/m 0,00 h 0,07 h 14 W/m 13,1 km/h (3 Bft) 96,79 %
21.12.2017 10:00 7,7 C 7,7 C 6,7 C 100 % 15 lf 1033,1 hPa 0,0 l/m 0,00 h 0,00 h 21 W/m 13,6 km/h (3 Bft) 97,46 %
21.12.2017 11:00 8,0 C 8,1 C 7,4 C 100 % 15 lf 1033,1 hPa 0,0 l/m 0,00 h 0,10 h 43 W/m 12,5 km/h (3 Bft) 93,31 %
21.12.2017 12:00 8,4 C 8,3 C 7,7 C 100 % 15 lf 1032,8 hPa 0,0 l/m 0,00 h 0,00 h 34 W/m 11,6 km/h (2 Bft) 97,90 %
21.12.2017 13:00 8,6 C 8,6 C 7,8 C 100 % 15 lf 1032,6 hPa 0,0 l/m 0,00 h 0,13 h 36 W/m 12,2 km/h (2 Bft) 96,00 %
21.12.2017 14:00 8,8 C 8,9 C 7,8 C 100 % 15 lf 1032,2 hPa 0,2 l/m 0,00 h 0,10 h 25 W/m 9,8 km/h (2 Bft) 95,65 %
21.12.2017 15:00 8,9 C 8,9 C 7,8 C 100 % 15 lf 1032,2 hPa 0,0 l/m 0,00 h 0,00 h 16 W/m 10,1 km/h (2 Bft) 96,01 %
21.12.2017 16:00 8,9 C 8,9 C 7,8 C 100 % 15 lf 1032,7 hPa 0,0 l/m 0,00 h 0,00 h 4 W/m 10,1 km/h (2 Bft) 95,65 %
21.12.2017 17:00 8,8 C 8,4 C 7,7 C 100 % 15 lf 1033,1 hPa 0,0 l/m 0,00 h 0,00 h 0 W/m 7,8 km/h (2 Bft) 96,73 %
21.12.2017 18:00 8,8 C 8,4 C 7,8 C 100 % 15 lf 1033,3 hPa 0,0 l/m 0,00 h 0,00 h 0 W/m 8,5 km/h (2 Bft) 96,91 %
21.12.2017 19:00 8,8 C 8,3 C 7,7 C 100 % 15 lf 1033,4 hPa 0,0 l/m 0,00 h 0,00 h 0 W/m 8,4 km/h (2 Bft) 93,16 %
21.12.2017 20:00 8,8 C 8,3 C 7,4 C 100 % 15 lf 1033,5 hPa 0,0 l/m 0,00 h 0,00 h 0 W/m 6,6 km/h (2 Bft) 98,71 %
21.12.2017 21:00 8,6 C 8,3 C 7,1 C 100 % 15 lf 1033,2 hPa 0,0 l/m 0,00 h 0,00 h 0 W/m 7,2 km/h (2 Bft) 96,75 %
21.12.2017 22:00 8,6 C 8,3 C 7,2 C 100 % 15 lf 1033,2 hPa 0,0 l/m 0,00 h 0,00 h 0 W/m 9,7 km/h (2 Bft) 94,31 %
21.12.2017 23:00 8,5 C 8,3 C 7,2 C 100 % 15 lf 1033,1 hPa 0,0 l/m 0,00 h 0,00 h 0 W/m 4,7 km/h (1 Bft) 97,10 %
22.12.2017 00:00 8,6 C 8,3 C 7,2 C 100 % 15 lf 1032,7 hPa 0,0 l/m 0,00 h 0,00 h 0 W/m 4,7 km/h (1 Bft) 97,60 %
22.12.2017 01:00 8,5 C 8,3 C 7,2 C 100 % 15 lf 1032,2 hPa 0,0 l/m 0,00 h 0,00 h 0 W/m 6,1 km/h (2 Bft) 95,23 %
22.12.2017 02:00 8,4 C 8,3 C 7,2 C 100 % 15 lf 1031,9 hPa 0,2 l/m 0,00 h 0,13 h 0 W/m 4,5 km/h (1 Bft) 97,08 %
22.12.2017 03:00 8,5 C 8,3 C 7,2 C 100 % 15 lf 1031,5 hPa 0,4 l/m 0,00 h 0,93 h 0 W/m 4,1 km/h (1 Bft) 93,81 %
22.12.2017 04:00 8,6 C 8,3 C 7,2 C 100 % 15 lf 1031,0 hPa 0,4 l/m 0,00 h 0,70 h 0 W/m 3,4 km/h (1 Bft) 97,90 %
22.12.2017 05:00 8,5 C 8,3 C 7,2 C 100 % 15 lf 1030,8 hPa 0,6 l/m 0,00 h 0,83 h 0 W/m 3,4 km/h (1 Bft) 96,39 %
22.12.2017 06:00 8,5 C 8,3 C 7,2 C 100 % 15 lf 1030,7 hPa 0,4 l/m 0,00 h 0,80 h 0 W/m 1,0 km/h (0 Bft) 93,88 %
22.12.2017 07:00 8,6 C 8,5 C 7,2 C 100 % 15 lf 1030,9 hPa 0,4 l/m 0,00 h 0,83 h 0 W/m 2,0 km/h (1 Bft) 97,72 %
22.12.2017 08:00 8,9 C 8,9 C 7,8 C 100 % 15 lf 1031,1 hPa 0,4 l/m 0,00 h 0,53 h 0 W/m 8,6 km/h (2 Bft) 98,34 %
22.12.2017 09:00 9,1 C 8,9 C 7,8 C 100 % 15 lf 1031,6 hPa 0,0 l/m 0,00 h 0,03 h 11 W/m 8,9 km/h (2 Bft) 92,96 %
22.12.2017 10:00 9,3 C 9,3 C 8,3 C 100 % 15 lf 1032,2 hPa 0,2 l/m 0,00 h 0,37 h 26 W/m 8,6 km/h (2 Bft) 98,74 %
22.12.2017 11:00 9,3 C 9,4 C 8,3 C 100 % 15 lf 1032,5 hPa 0,2 l/m 0,00 h 0,30 h 23 W/m 7,0 km/h (2 Bft) 96,24 %
22.12.2017 12:00 9,4 C 9,4 C 8,3 C 100 % 15 lf 1032,5 hPa 0,0 l/m 0,00 h 0,00 h 33 W/m 10,5 km/h (2 Bft) 95,87 %
22.12.2017 13:00 9,4 C 9,4 C 8,6 C 100 % 15 lf 1032,5 hPa 0,0 l/m 0,00 h 0,00 h 31 W/m 10,9 km/h (2 Bft) 96,73 %
22.12.2017 14:00 9,2 C 8,9 C 8,0 C 100 % 15 lf 1032,7 hPa 0,0 l/m 0,00 h 0,13 h 15 W/m 11,0 km/h (2 Bft) 95,20 %
22.12.2017 15:00 9,0 C 8,9 C 7,8 C 100 % 15 lf 1032,8 hPa 0,0 l/m 0,00 h 0,07 h 13 W/m 7,0 km/h (2 Bft) 97,14 %
22.12.2017 16:00 8,9 C 8,9 C 7,8 C 100 % 15 lf 1033,1 hPa 0,0 l/m 0,00 h 0,00 h 5 W/m 5,4 km/h (1 Bft) 96,17 %
22.12.2017 17:00 8,8 C 8,3 C 7,8 C 100 % 15 lf 1033,6 hPa 0,0 l/m 0,00 h 0,00 h 0 W/m 4,8 km/h (1 Bft) 93,95 %
22.12.2017 18:00 8,7 C 8,3 C 7,8 C 100 % 15 lf 1033,8 hPa 0,2 l/m 0,00 h 0,00 h 0 W/m 4,6 km/h (1 Bft) 97,72 %
22.12.2017 19:00 8,7 C 8,3 C 7,8 C 100 % 15 lf 1034,2 hPa 0,0 l/m 0,00 h 0,00 h 0 W/m 3,8 km/h (1 Bft) 97,01 %
22.12.2017 20:00 8,7 C 8,3 C 7,7 C 100 % 15 lf 1034,6 hPa 0,0 l/m 0,00 h 0,00 h 0 W/m 4,1 km/h (1 Bft) 92,79 %
22.12.2017 21:00 8,6 C 8,3 C 7,2 C 100 % 15 lf 1034,9 hPa 0,0 l/m 0,00 h 0,00 h 0 W/m 6,3 km/h (2 Bft) 98,29 %
22.12.2017 22:00 8,5 C 8,3 C 7,2 C 100 % 15 lf 1034,7 hPa 0,0 l/m 0,00 h 0,13 h 0 W/m 7,4 km/h (2 Bft) 96,51 %
22.12.2017 23:00 8,6 C 8,3 C 7,2 C 100 % 15 lf 1034,9 hPa 0,0 l/m 0,00 h 0,00 h 0 W/m 8,3 km/h (2 Bft) 95,58 %
23.12.2017 00:00 8,6 C 8,3 C 7,2 C 100 % 15 lf 1034,8 hPa 0,0 l/m 0,00 h 0,00 h 0 W/m 8,2 km/h (2 Bft) 95,62 %
23.12.2017 01:00 8,4 C 8,3 C 7,2 C 100 % 15 lf 1034,4 hPa 0,0 l/m 0,00 h 0,00 h 0 W/m 9,9 km/h (2 Bft) 96,01 %
23.12.2017 02:00 8,4 C 8,3 C 7,2 C 100 % 15 lf 1033,8 hPa 0,0 l/m 0,00 h 0,17 h 0 W/m 12,9 km/h (3 Bft) 95,87 %
23.12.2017 03:00 8,4 C 8,3 C 7,2 C 100 % 15 lf 1033,3 hPa 0,2 l/m 0,00 h 0,17 h 0 W/m 15,5 km/h (3 Bft) 96,80 %
23.12.2017 04:00 8,2 C 8,1 C 7,1 C 100 % 15 lf 1032,9 hPa 0,0 l/m 0,00 h 0,23 h 0 W/m 16,8 km/h (3 Bft) 95,23 %
23.12.2017 05:00 8,1 C 7,8 C 6,9 C 100 % 15 lf 1032,9 hPa 0,0 l/m 0,00 h 0,07 h 0 W/m 17,5 km/h (3 Bft) 98,16 %
23.12.2017 06:00 8,1 C 7,8 C 6,8 C 100 % 15 lf 1032,9 hPa 0,0 l/m 0,00 h 0,13 h 0 W/m 15,9 km/h (3 Bft) 96,17 %
23.12.2017 07:00 8,0 C 7,8 C 6,7 C 100 % 15 lf 1032,5 hPa 0,0 l/m 0,00 h 0,17 h 0 W/m 17,4 km/h (3 Bft) 94,67 %
23.12.2017 08:00 7,9 C 7,8 C 6,7 C 100 % 15 lf 1032,2 hPa 0,0 l/m 0,00 h 0,13 h 3 W/m 15,9 km/h (3 Bft) 97,58 %
23.12.2017 09:00 8,0 C 7,9 C 6,7 C 100 % 15 lf 1032,4 hPa 0,0 l/m 0,00 h 0,10 h 7 W/m 16,0 km/h (3 Bft) 96,94 %
23.12.2017 10:00 8,1 C 8,3 C 7,1 C 100 % 15 lf 1032,5 hPa 0,0 l/m 0,00 h 0,03 h 19 W/m 18,1 km/h (3 Bft) 95,64 %
23.12.2017 11:00 8,3 C 8,3 C 7,2 C 100 % 15 lf 1032,1 hPa 0,0 l/m 0,00 h 0,07 h 24 W/m 16,4 km/h (3 Bft) 96,51 %
23.12.2017 12:00 8,2 C 8,3 C 7,2 C 100 % 9 lf 1031,6 hPa 0,0 l/m 0,00 h 0,07 h 26 W/m 22,0 km/h (4 Bft) 96,69 %
23.12.2017 13:00 8,3 C 8,5 C 7,2 C 100 % 0 lf 1031,1 hPa 0,0 l/m 0,00 h 0,03 h 28 W/m 25,4 km/h (4 Bft) 97,07 %
23.12.2017 14:00 8,4 C 8,3 C 7,2 C 99 % 0 lf 1030,9 hPa 0,0 l/m 0,00 h 0,00 h 16 W/m 17,4 km/h (3 Bft) 94,62 %
23.12.2017 15:00 8,6 C 8,8 C 7,2 C 97 % 0 lf 1030,4 hPa 0,0 l/m 0,00 h 0,00 h 11 W/m 20,0 km/h (4 Bft) 97,36 %
23.12.2017 16:00 8,8 C 8,9 C 7,2 C 96 % 0 lf 1030,0 hPa 0,0 l/m 0,00 h 0,00 h 6 W/m 23,8 km/h (4 Bft) 96,04 %
23.12.2017 17:00 9,0 C 8,9 C 7,2 C 96 % 0 lf 1029,8 hPa 0,0 l/m 0,00 h 0,00 h 0 W/m 22,4 km/h (4 Bft) 97,03 %
23.12.2017 18:00 9,2 C 9,3 C 7,7 C 96 % 0 lf 1029,5 hPa 0,0 l/m 0,00 h 0,00 h 0 W/m 24,4 km/h (4 Bft) 95,59 %
23.12.2017 19:00 9,4 C 9,4 C 7,8 C 95 % 0 lf 1029,4 hPa 0,0 l/m 0,00 h 0,00 h 0 W/m 25,2 km/h (4 Bft) 95,01 %
23.12.2017 20:00 9,3 C 9,4 C 7,8 C 95 % 0 lf 1029,3 hPa 0,0 l/m 0,00 h 0,00 h 0 W/m 24,5 km/h (4 Bft) 96,37 %
23.12.2017 21:00 9,2 C 9,2 C 7,8 C 95 % 0 lf 1028,9 hPa 0,0 l/m 0,00 h 0,00 h 0 W/m 26,7 km/h (4 Bft) 97,30 %
23.12.2017 22:00 9,2 C 9,3 C 7,8 C 96 % 0 lf 1028,8 hPa 0,0 l/m 0,00 h 0,00 h 0 W/m 30,9 km/h (5 Bft) 93,73 %
23.12.2017 23:00 9,2 C 9,2 C 7,8 C 95 % 0 lf 1028,5 hPa 0,0 l/m 0,00 h 0,00 h 0 W/m 27,7 km/h (4 Bft) 97,30 %
24.12.2017 00:00 9,2 C 8,9 C 7,8 C 95 % 0 lf 1028,2 hPa 0,0 l/m 0,00 h 0,00 h 0 W/m 30,2 km/h (5 Bft) 96,53 %
24.12.2017 01:00 9,1 C 8,9 C 7,8 C 95 % 0 lf 1027,6 hPa 0,0 l/m 0,00 h 0,00 h 0 W/m 35,2 km/h (5 Bft) 94,10 %
24.12.2017 02:00 8,9 C 8,9 C 7,8 C 94 % 0 lf 1027,4 hPa 0,0 l/m 0,00 h 0,00 h 0 W/m 35,4 km/h (5 Bft) 96,87 %
24.12.2017 03:00 8,9 C 8,9 C 7,8 C 94 % 0 lf 1027,2 hPa 0,0 l/m 0,00 h 0,00 h 0 W/m 31,2 km/h (5 Bft) 96,58 %
24.12.2017 04:00 8,9 C 8,9 C 7,8 C 94 % 0 lf 1026,8 hPa 0,0 l/m 0,00 h 0,00 h 0 W/m 33,3 km/h (5 Bft) 96,44 %
24.12.2017 05:00 8,9 C 8,9 C 7,8 C 94 % 0 lf 1026,4 hPa 0,0 l/m 0,00 h 0,00 h 0 W/m 31,4 km/h (5 Bft) 95,69 %
24.12.2017 06:00 8,9 C 8,9 C 7,8 C 94 % 0 lf 1026,1 hPa 0,0 l/m 0,00 h 0,00 h 0 W/m 28,7 km/h (4 Bft) 95,96 %
24.12.2017 07:00 8,8 C 8,5 C 7,4 C 94 % 0 lf 1026,1 hPa 0,0 l/m 0,00 h 0,00 h 0 W/m 24,5 km/h (4 Bft) 96,71 %
24.12.2017 08:00 8,3 C 7,8 C 6,7 C 95 % 14 lf 1025,9 hPa 0,0 l/m 0,00 h 0,00 h 4 W/m 23,2 km/h (4 Bft) 97,59 %
24.12.2017 09:00 8,0 C 7,8 C 6,7 C 97 % 15 lf 1025,9 hPa 0,2 l/m 0,00 h 0,00 h 16 W/m 26,6 km/h (4 Bft) 93,40 %
24.12.2017 10:00 8,0 C 8,0 C 6,9 C 97 % 15 lf 1025,5 hPa 0,0 l/m 0,00 h 0,00 h 36 W/m 24,5 km/h (4 Bft) 97,94 %
24.12.2017 11:00 8,3 C 8,6 C 7,4 C 97 % 5 lf 1025,1 hPa 0,0 l/m 0,00 h 0,07 h 46 W/m 30,6 km/h (5 Bft) 97,06 %
24.12.2017 12:00 8,7 C 8,9 C 7,8 C 96 % 0 lf 1024,7 hPa 0,0 l/m 0,00 h 0,00 h 50 W/m 31,2 km/h (5 Bft) 93,93 %
24.12.2017 13:00 8,8 C 8,9 C 7,8 C 95 % 0 lf 1023,9 hPa 0,0 l/m 0,00 h 0,00 h 37 W/m 30,6 km/h (5 Bft) 96,73 %
24.12.2017 14:00 8,9 C 8,9 C 7,8 C 95 % 0 lf 1023,4 hPa 0,0 l/m 0,00 h 0,00 h 26 W/m 30,8 km/h (5 Bft) 96,55 %
24.12.2017 15:00 8,9 C 8,9 C 7,8 C 95 % 0 lf 1023,1 hPa 0,0 l/m 0,00 h 0,00 h 16 W/m 30,9 km/h (5 Bft) 95,64 %
24.12.2017 16:00 8,7 C 8,4 C 7,3 C 95 % 0 lf 1022,9 hPa 0,0 l/m 0,00 h 0,00 h 6 W/m 25,1 km/h (4 Bft) 96,69 %
24.12.2017 17:00 8,4 C 8,3 C 7,2 C 96 % 0 lf 1022,5 hPa 0,0 l/m 0,00 h 0,00 h 0 W/m 24,1 km/h (4 Bft) 95,53 %
24.12.2017 18:00 8,6 C 8,3 C 7,3 C 94 % 0 lf 1022,3 hPa 0,0 l/m 0,00 h 0,00 h 0 W/m 28,0 km/h (4 Bft) 97,34 %
24.12.2017 19:00 8,6 C 8,3 C 7,2 C 94 % 0 lf 1022,2 hPa 0,0 l/m 0,00 h 0,00 h 0 W/m 31,0 km/h (5 Bft) 97,30 %
24.12.2017 20:00 8,7 C 8,9 C 7,8 C 93 % 0 lf 1021,8 hPa 0,0 l/m 0,00 h 0,00 h 0 W/m 31,4 km/h (5 Bft) 94,69 %
24.12.2017 21:00 8,8 C 8,7 C 7,6 C 92 % 0 lf 1021,5 hPa 0,0 l/m 0,00 h 0,00 h 0 W/m 26,9 km/h (4 Bft) 97,72 %
24.12.2017 22:00 8,7 C 8,5 C 7,4 C 92 % 0 lf 1021,1 hPa 0,0 l/m 0,00 h 0,00 h 0 W/m 28,1 km/h (4 Bft) 98,64 %
24.12.2017 23:00 8,7 C 8,3 C 7,2 C 92 % 0 lf 1021,1 hPa 0,0 l/m 0,00 h 0,00 h 0 W/m 25,6 km/h (4 Bft) 93,05 %
Min-Datum _ 18.12.17 18.12.17 18.12.17 24.12.17 19.12.17 18.12.17 - - - - 18.12.17 20.12.17
_ Min-Zeit 01:38 00:30 00:28 22:46 13:08 05:00 - - - - 08:02 04:05
Minimum _ 0,2 C 0,0 C -1,1 C 91 % 0 lf 1015,0 hPa - - - - 0,0 km/h (0 Bft) 4,39 %
Max-Datum _ 22.12.17 22.12.17 22.12.17 19.12.17 18.12.17 22.12.17 18.12.17 18.12.17 18.12.17 18.12.17 24.12.17 18.12.17
_ Max-Zeit 12:02 10:08 13:00 10:28 00:00 21:40 03:06 00:00 05:40 12:32 01:44 02:10
Maximum _ 9,4 C 9,4 C 8,9 C 100 % 15 lf 1035,1 hPa 1,0 l/m 0,00 h 0,08 h 94 W/m 56,3 km/h
W-SW (7 Bft)
100,00 %
Durchschnitt _ 6,7 C 6,6 C 5,6 C 98 % 11 lf 1029,6 hPa #16,2 l/m #0 min. #18:25 h 25 W/m 12,9 km/h (3 Bft) 96,13 %
© 2017 W. Hausmann